Time;durP1;ratioP1;P1;durP2;ratioP2;P2;SDS_P1;SDS_P2;PMS_P1;PMS_P2;Temp;Humidity;BMP_temperature;BMP_pressure;BME280_temperature;BME280_humidity;BME280_pressure;Samples;Min_cycle;Max_cycle;Signal;HPM_P1;HPM_P2
2021/08/18 00:01:05;;;;;;;1.77;1.40;;;;;;;17.69;70.93;100819.41;4998911;28;20124;-75
2021/08/18 00:03:31;;;;;;;1.48;1.38;;;;;;;17.70;71.25;100824.63;4996687;28;20018;-75
2021/08/18 00:05:57;;;;;;;1.27;1.17;;;;;;;17.72;71.36;100829.84;5013804;28;20061;-74
2021/08/18 00:08:22;;;;;;;1.67;1.30;;;;;;;17.72;70.83;100824.31;4997390;28;20053;-76
2021/08/18 00:10:48;;;;;;;1.10;1.10;;;;;;;17.75;70.77;100818.19;4974873;28;20034;-74
2021/08/18 00:13:13;;;;;;;3.60;1.00;;;;;;;17.77;70.56;100818.69;4957147;28;20030;-74
2021/08/18 00:15:40;;;;;;;1.85;1.13;;;;;;;17.79;70.93;100814.50;4995874;28;20096;-74
2021/08/18 00:18:09;;;;;;;1.05;1.02;;;;;;;17.77;70.94;100814.00;4995163;28;20113;-74
2021/08/18 00:20:35;;;;;;;0.90;0.90;;;;;;;17.76;70.51;100817.06;4993147;28;20042;-75
2021/08/18 00:23:01;;;;;;;3.10;1.63;;;;;;;17.79;70.40;100814.50;4998425;28;20568;-74
2021/08/18 00:25:27;;;;;;;2.67;1.17;;;;;;;17.78;70.39;100818.41;4996312;28;20026;-72
2021/08/18 00:27:55;;;;;;;0.95;0.95;;;;;;;17.80;70.73;100815.34;4994954;28;20026;-72
2021/08/18 00:30:21;;;;;;;0.93;0.90;;;;;;;17.80;70.56;100809.81;4994343;28;20611;-74
2021/08/18 00:32:47;;;;;;;0.85;0.85;;;;;;;17.86;70.21;100819.63;4993743;28;20052;-73
2021/08/18 00:35:13;;;;;;;1.92;0.70;;;;;;;17.88;70.18;100809.06;4993518;28;20113;-75
2021/08/18 00:37:38;;;;;;;0.82;0.82;;;;;;;17.90;69.94;100815.16;4994395;28;20520;-72
2021/08/18 00:40:04;;;;;;;2.45;1.23;;;;;;;17.91;69.78;100804.91;4992784;28;20456;-76
2021/08/18 00:42:31;;;;;;;1.77;1.10;;;;;;;17.88;70.38;100806.31;4960443;28;20051;-74
2021/08/18 00:44:56;;;;;;;0.88;0.88;;;;;;;17.88;69.86;100800.78;4994140;28;20491;-74
2021/08/18 00:47:22;;;;;;;1.23;1.13;;;;;;;17.87;70.10;100810.22;4992463;28;20113;-73
2021/08/18 00:49:47;;;;;;;0.68;0.68;;;;;;;17.90;70.31;100809.63;4994858;28;20038;-74
2021/08/18 00:52:13;;;;;;;1.13;0.82;;;;;;;17.90;69.95;100803.25;4990227;28;20037;-75
2021/08/18 00:54:38;;;;;;;5.90;1.17;;;;;;;17.92;70.34;100801.84;4995789;28;20030;-74
2021/08/18 00:57:06;;;;;;;3.60;1.05;;;;;;;17.92;70.21;100801.03;4996338;28;20035;-74
2021/08/18 00:59:32;;;;;;;1.20;1.10;;;;;;;17.89;70.12;100796.88;4997791;28;20034;-75
2021/08/18 01:01:58;;;;;;;0.75;0.75;;;;;;;17.87;70.32;100793.63;4991758;28;20030;-74
2021/08/18 01:04:24;;;;;;;3.00;1.90;;;;;;;17.86;70.26;100797.50;4996498;28;20029;-75
2021/08/18 01:06:49;;;;;;;2.20;1.02;;;;;;;17.86;70.79;100802.19;4989087;28;20046;-74
2021/08/18 01:09:17;;;;;;;1.40;1.20;;;;;;;17.83;70.65;100797.28;4997100;28;20049;-75
2021/08/18 01:11:45;;;;;;;1.13;1.02;;;;;;;17.76;71.01;100787.44;4997253;28;20139;-73
2021/08/18 01:14:11;;;;;;;3.45;1.05;;;;;;;17.76;70.98;100786.63;4995186;28;20085;-74
2021/08/18 01:16:38;;;;;;;1.42;1.42;;;;;;;17.75;71.42;100790.53;4994115;28;20436;-76
2021/08/18 01:19:05;;;;;;;4.05;1.50;;;;;;;17.70;71.69;100793.41;4995394;28;20028;-74
2021/08/18 01:21:37;;;;;;;2.00;1.40;;;;;;;17.66;71.66;100786.84;4999948;28;20022;-75
2021/08/18 01:24:03;;;;;;;3.50;1.58;;;;;;;17.62;72.00;100778.31;5000203;28;20030;-75
2021/08/18 01:26:29;;;;;;;1.67;1.55;;;;;;;17.60;72.28;100778.63;4994726;28;20037;-75
2021/08/18 01:28:56;;;;;;;2.67;1.33;;;;;;;17.55;72.23;100773.19;4995957;28;20069;-75
2021/08/18 01:31:22;;;;;;;2.10;1.40;;;;;;;17.56;72.10;100774.81;4995285;28;20120;-75
2021/08/18 01:33:48;;;;;;;1.50;1.02;;;;;;;17.54;71.92;100767.97;4994493;28;20022;-74
2021/08/18 01:36:13;;;;;;;1.35;1.25;;;;;;;17.53;72.24;100771.84;4999583;28;20049;-73
2021/08/18 01:38:39;;;;;;;2.67;1.27;;;;;;;17.49;72.47;100779.09;4995363;28;20033;-73
2021/08/18 01:41:04;;;;;;;1.33;1.23;;;;;;;17.49;72.64;100768.84;4999204;28;20026;-73
2021/08/18 01:43:30;;;;;;;1.42;1.40;;;;;;;17.48;72.57;100770.00;4997146;28;20030;-75
2021/08/18 01:45:56;;;;;;;2.28;1.33;;;;;;;17.51;72.70;100774.91;4997878;28;20034;-75
2021/08/18 01:48:24;;;;;;;1.25;1.23;;;;;;;17.53;72.52;100767.13;5000037;28;20057;-74
2021/08/18 01:50:52;;;;;;;1.67;1.00;;;;;;;17.51;72.30;100768.56;4996368;28;20018;-76
2021/08/18 01:53:20;;;;;;;0.93;0.90;;;;;;;17.54;72.40;100766.00;4997204;28;20066;-75
2021/08/18 01:55:47;;;;;;;2.28;1.10;;;;;;;17.54;72.72;100756.91;4999851;28;20034;-75
2021/08/18 01:58:12;;;;;;;1.02;0.90;;;;;;;17.56;72.73;100765.72;5001214;28;20030;-74
2021/08/18 02:00:40;;;;;;;1.48;1.30;;;;;;;17.54;72.54;100756.91;5015729;28;20037;-75
2021/08/18 02:03:05;;;;;;;1.17;1.05;;;;;;;17.50;72.22;100756.69;5000181;28;20018;-74
2021/08/18 02:06:15;;;;;;;1.95;1.23;;;;;;;17.58;72.13;100753.22;5001924;28;20105;-74
2021/08/18 02:08:40;;;;;;;1.33;1.27;;;;;;;17.51;72.71;100757.50;4996492;28;20110;-75
2021/08/18 02:11:14;;;;;;;1.77;1.67;;;;;;;17.40;72.50;100748.59;4984991;28;20022;-75
2021/08/18 02:34:35;;;;;;;2.80;1.40;;;;;;;17.44;72.68;100744.91;4941416;29;20095;-74
2021/08/18 02:37:01;;;;;;;1.27;1.27;;;;;;;17.46;72.57;100741.81;4969984;28;20130;-75
2021/08/18 02:39:26;;;;;;;1.90;1.42;;;;;;;17.46;72.90;100733.53;4975163;28;20393;-74
2021/08/18 02:41:51;;;;;;;1.48;1.42;;;;;;;17.51;73.26;100741.75;4971358;28;20025;-75
2021/08/18 02:44:36;;;;;;;2.35;2.13;;;;;;;17.55;73.22;100753.00;4976110;28;20034;-74
2021/08/18 03:07:44;;;;;;;2.15;2.05;;;;;;;17.41;72.46;100708.75;4890679;29;20035;-76
2021/08/18 03:11:14;;;;;;;;;;;;;;;;;;;;;
2021/08/18 03:18:05;;;;;;;2.55;2.35;;;;;;;17.59;72.65;100731.91;4862816;29;20177;-74
2021/08/18 03:23:52;;;;;;;5.68;2.80;;;;;;;17.40;73.52;100705.16;4862696;29;20122;-76
2021/08/18 03:36:42;;;;;;;3.17;3.05;;;;;;;17.48;73.72;100711.94;4861458;29;20653;-76
2021/08/18 03:52:56;;;;;;;5.32;3.72;;;;;;;17.32;75.50;100699.53;4938489;29;20509;-74
2021/08/18 03:59:05;;;;;;;4.60;4.40;;;;;;;17.28;75.66;100713.94;4944667;29;20050;-74
2021/08/18 04:04:57;;;;;;;6.68;5.35;;;;;;;17.11;76.20;100688.84;4928568;29;20037;-75
2021/08/18 04:11:09;;;;;;;6.50;6.00;;;;;;;17.22;76.68;100701.34;4935545;29;20046;-75
2021/08/18 04:28:33;;;;;;;5.70;5.30;;;;;;;17.30;76.83;100701.78;4971118;28;20053;-74
2021/08/18 04:31:16;;;;;;;5.97;5.50;;;;;;;17.27;76.84;100693.00;4966368;28;20050;-75
2021/08/18 04:33:52;;;;;;;5.63;5.22;;;;;;;17.34;76.69;100697.28;4973775;28;20034;-74
2021/08/18 04:36:52;;;;;;;6.22;5.70;;;;;;;17.42;76.50;100696.56;4973910;28;20043;-73
2021/08/18 04:42:23;;;;;;;5.03;4.82;;;;;;;17.44;76.53;100691.56;4130669;26;20429;-74
2021/08/18 04:44:49;;;;;;;5.10;4.80;;;;;;;17.44;76.18;100692.38;4959354;28;20041;-76
2021/08/18 04:47:14;;;;;;;6.15;5.72;;;;;;;17.48;76.66;100698.13;4956719;28;20038;-74
2021/08/18 04:49:39;;;;;;;5.95;5.47;;;;;;;17.50;75.97;100690.34;4972721;28;20033;-76
2021/08/18 04:52:05;;;;;;;7.32;5.05;;;;;;;17.51;76.05;100686.44;4953787;28;20414;-74
2021/08/18 04:54:31;;;;;;;4.95;4.47;;;;;;;17.55;76.05;100690.25;4970807;28;20011;-72
2021/08/18 04:56:56;;;;;;;4.63;4.32;;;;;;;17.58;76.19;100692.41;4953655;28;20034;-72
2021/08/18 04:59:22;;;;;;;4.30;3.92;;;;;;;17.60;76.03;100687.38;4979882;28;20038;-74
2021/08/18 05:01:50;;;;;;;6.95;3.65;;;;;;;17.63;75.83;100683.97;4975119;28;20082;-74
2021/08/18 05:04:18;;;;;;;4.28;4.07;;;;;;;17.62;75.36;100676.84;4953076;28;20034;-75
2021/08/18 05:06:44;;;;;;;3.45;3.25;;;;;;;17.74;75.58;100695.69;4954343;28;20050;-74
2021/08/18 05:09:10;;;;;;;3.42;3.13;;;;;;;17.77;75.63;100683.16;4947456;28;20086;-75
2021/08/18 05:11:36;;;;;;;3.13;3.03;;;;;;;17.77;75.32;100677.63;4929982;28;20078;-74
2021/08/18 05:14:03;;;;;;;4.07;3.85;;;;;;;17.77;74.96;100672.94;4949704;28;20053;-74
2021/08/18 05:16:30;;;;;;;3.85;3.60;;;;;;;17.80;74.74;100677.03;4979978;28;20046;-74
2021/08/18 05:18:56;;;;;;;3.78;3.58;;;;;;;17.84;75.42;100682.75;4961603;28;20110;-74
2021/08/18 05:21:23;;;;;;;3.25;3.00;;;;;;;17.85;75.11;100674.13;4943128;28;20130;-74
2021/08/18 05:23:49;;;;;;;3.28;3.17;;;;;;;17.95;74.97;100684.22;4930783;28;20040;-73
2021/08/18 05:26:17;;;;;;;2.53;2.42;;;;;;;17.98;74.46;100688.31;4933360;28;20030;-74
2021/08/18 05:38:12;;;;;;;3.58;3.38;;;;;;;18.16;74.07;100695.63;4918765;29;20075;-73
2021/08/18 05:40:55;;;;;;;3.50;3.20;;;;;;;18.17;74.41;100688.97;4964699;28;20047;-74
2021/08/18 05:43:25;;;;;;;2.50;2.30;;;;;;;17.99;74.48;100667.78;4965842;28;20023;-73
2021/08/18 05:46:02;;;;;;;3.60;2.80;;;;;;;18.09;74.30;100678.63;4964208;28;20031;-72
2021/08/18 05:48:27;;;;;;;3.20;2.38;;;;;;;18.15;74.19;100682.94;4983702;28;20038;-73
2021/08/18 05:51:08;;;;;;;3.17;2.40;;;;;;;18.21;74.26;100686.41;4969366;28;20031;-73
2021/08/18 05:53:34;;;;;;;1.83;1.80;;;;;;;18.09;73.86;100673.09;4993239;28;20045;-73
2021/08/18 05:56:51;;;;;;;;;;;;;;;;;;;;;
2021/08/18 06:06:12;;;;;;;1.50;1.40;;;;;;;18.21;nan;100665.09;4861131;29;20050;-74
2021/08/18 06:08:43;;;;;;;1.88;1.67;;;;;;;18.35;73.67;100689.94;4899081;29;20081;-73
2021/08/18 06:11:09;;;;;;;2.08;1.77;;;;;;;18.43;73.98;100689.22;4899743;29;20972;-73
2021/08/18 06:13:35;;;;;;;1.50;1.50;;;;;;;18.48;74.14;100691.03;4918838;28;20116;-74
2021/08/18 06:16:01;;;;;;;1.73;1.63;;;;;;;18.52;73.41;100692.06;4972369;28;20038;-73
2021/08/18 06:18:26;;;;;;;0.80;0.80;;;;;;;18.58;74.00;100690.81;4979744;28;20030;-74
2021/08/18 06:20:51;;;;;;;0.60;0.60;;;;;;;18.62;73.36;100691.81;4970029;28;20409;-74
2021/08/18 06:23:20;;;;;;;1.20;1.20;;;;;;;18.65;73.61;100685.66;4982295;28;20101;-74
2021/08/18 06:25:46;;;;;;;1.63;1.42;;;;;;;18.69;73.27;100688.63;4976680;28;20026;-74
2021/08/18 06:28:12;;;;;;;1.55;1.45;;;;;;;18.70;73.59;100692.19;4975830;28;20025;-74
2021/08/18 06:30:37;;;;;;;2.80;1.38;;;;;;;18.69;73.53;100690.56;4972090;28;20083;-73
2021/08/18 06:33:03;;;;;;;1.60;1.50;;;;;;;18.67;73.28;100693.63;4955870;28;20769;-72
2021/08/18 06:35:28;;;;;;;5.53;1.80;;;;;;;18.67;73.75;100700.00;4942665;28;20043;-78
2021/08/18 06:38:27;;;;;;;2.20;1.90;;;;;;;18.64;73.06;100688.72;4958713;28;20030;-80
2021/08/18 06:40:54;;;;;;;2.58;1.88;;;;;;;18.55;73.20;100674.81;4910732;29;20118;-76
2021/08/18 06:43:20;;;;;;;2.67;1.50;;;;;;;18.61;73.68;100690.16;4886242;29;20036;-75
2021/08/18 06:45:46;;;;;;;3.08;1.92;;;;;;;18.60;73.70;100688.56;4898595;29;20576;-75
2021/08/18 06:48:56;;;;;;;4.63;2.70;;;;;;;18.72;73.08;100695.47;4900478;29;20668;-76
2021/08/18 06:57:19;;;;;;;2.13;1.92;;;;;;;18.70;73.67;100678.34;4951990;28;20108;-74
2021/08/18 07:15:09;;;;;;;;;;;;;;;;;;;;;
2021/08/18 07:24:34;;;;;;;7.03;2.45;;;;;;;18.75;71.72;100678.22;4718695;30;20047;-73
2021/08/18 07:31:07;;;;;;;;;;;;;;;;;;;;;
2021/08/18 07:37:32;;;;;;;2.03;1.92;;;;;;;19.07;71.82;100668.84;4630071;30;20471;-74
2021/08/18 07:47:47;;;;;;;2.10;2.00;;;;;;;18.88;71.38;100652.44;4736429;29;20035;-74
2021/08/18 08:04:56;;;;;;;2.78;2.67;;;;;;;18.63;72.43;100660.22;4770334;29;20331;-74
2021/08/18 08:07:21;;;;;;;2.75;2.63;;;;;;;18.69;72.60;100680.31;4772447;29;20081;-74
2021/08/18 08:09:46;;;;;;;3.13;3.00;;;;;;;18.64;72.60;100689.53;4865019;29;20123;-74
2021/08/18 08:12:12;;;;;;;2.75;2.50;;;;;;;18.65;73.22;100684.84;4975073;28;20043;-74
2021/08/18 08:14:37;;;;;;;4.00;3.28;;;;;;;18.63;73.57;100682.38;4939311;28;20034;-75
2021/08/18 08:17:03;;;;;;;1.77;1.65;;;;;;;18.63;73.65;100685.16;4958911;28;20031;-74
2021/08/18 08:19:29;;;;;;;2.55;2.35;;;;;;;18.63;73.87;100671.31;4953330;28;20050;-74
2021/08/18 08:21:54;;;;;;;2.42;2.33;;;;;;;18.62;73.35;100677.97;4973588;28;20019;-73
2021/08/18 08:24:20;;;;;;;1.67;1.58;;;;;;;18.70;73.83;100675.59;4953197;28;20039;-74
2021/08/18 08:26:45;;;;;;;1.95;1.85;;;;;;;18.83;73.37;100680.22;4948960;28;20054;-74
2021/08/18 08:29:10;;;;;;;1.52;1.52;;;;;;;18.96;73.35;100684.09;4974046;28;20026;-74
2021/08/18 08:31:36;;;;;;;1.95;1.85;;;;;;;19.01;73.30;100670.94;4973225;28;20026;-75
2021/08/18 08:34:02;;;;;;;1.75;1.67;;;;;;;19.09;73.03;100674.88;4947403;28;20523;-75
2021/08/18 08:36:28;;;;;;;4.38;1.83;;;;;;;19.12;72.45;100676.22;4935999;28;20030;-73
2021/08/18 08:38:53;;;;;;;1.08;1.08;;;;;;;19.15;72.24;100668.06;4928226;28;20031;-74
2021/08/18 08:41:19;;;;;;;1.80;1.70;;;;;;;19.21;72.07;100673.47;4971209;28;20026;-73
2021/08/18 08:43:45;;;;;;;1.17;1.10;;;;;;;19.24;72.29;100676.41;4973643;28;20030;-73
2021/08/18 08:46:12;;;;;;;1.92;1.83;;;;;;;19.29;72.26;100669.91;4974640;28;20034;-74
2021/08/18 08:48:41;;;;;;;0.70;0.70;;;;;;;19.50;72.21;100670.19;4952712;28;20025;-73
2021/08/18 08:51:07;;;;;;;2.00;1.65;;;;;;;19.63;71.24;100679.53;4961332;28;20157;-72
2021/08/18 08:53:35;;;;;;;1.77;1.65;;;;;;;19.59;70.93;100673.78;4966705;28;20070;-74
2021/08/18 08:56:01;;;;;;;1.90;1.60;;;;;;;19.52;70.52;100673.44;4953371;28;20126;-73
2021/08/18 08:58:27;;;;;;;1.88;1.77;;;;;;;19.53;70.43;100675.09;4956989;28;20037;-74
2021/08/18 09:00:52;;;;;;;1.40;1.30;;;;;;;19.50;70.77;100670.19;4957061;28;20118;-74
2021/08/18 09:03:23;;;;;;;1.80;1.70;;;;;;;19.46;71.04;100669.19;4951346;28;20035;-73
2021/08/18 09:05:50;;;;;;;1.77;1.48;;;;;;;19.51;70.58;100666.28;4953718;28;20027;-73
2021/08/18 09:08:21;;;;;;;1.55;1.45;;;;;;;19.56;70.72;100665.31;4957289;28;20028;-73
2021/08/18 09:11:09;;;;;;;2.53;2.33;;;;;;;19.81;70.86;100658.22;4956972;28;20031;-73
2021/08/18 09:13:47;;;;;;;1.33;1.23;;;;;;;20.15;70.31;100664.97;4952921;28;20058;-73
2021/08/18 09:16:13;;;;;;;3.85;2.30;;;;;;;20.49;68.21;100655.03;4950761;28;20038;-73
2021/08/18 09:18:51;;;;;;;1.67;1.50;;;;;;;20.77;67.40;100660.25;4953180;28;20062;-74
2021/08/18 09:21:34;;;;;;;1.42;1.30;;;;;;;20.90;65.97;100659.25;4953657;28;20055;-70
2021/08/18 09:24:11;;;;;;;1.65;1.23;;;;;;;20.96;65.33;100657.13;4963188;28;20051;-71
2021/08/18 09:26:48;;;;;;;1.83;1.30;;;;;;;21.11;64.95;100659.34;4948056;28;20130;-71
2021/08/18 09:29:37;;;;;;;1.35;1.27;;;;;;;21.76;64.69;100660.06;4939489;29;20046;-70
2021/08/18 09:32:30;;;;;;;1.75;1.27;;;;;;;22.15;61.83;100648.84;4938362;28;20462;-70
2021/08/18 09:35:02;;;;;;;0.95;0.82;;;;;;;22.27;61.10;100656.47;4952896;28;20102;-71
2021/08/18 09:37:28;;;;;;;6.30;1.30;;;;;;;22.24;60.77;100655.19;4952030;28;20024;-71
2021/08/18 09:39:56;;;;;;;1.77;1.10;;;;;;;22.14;60.32;100642.47;4939284;29;20035;-72
2021/08/18 09:42:39;;;;;;;0.63;0.60;;;;;;;22.16;61.08;100655.25;4953327;28;20473;-72
2021/08/18 09:45:11;;;;;;;1.38;1.27;;;;;;;22.02;61.21;100647.97;4948454;28;20035;-73
2021/08/18 09:48:06;;;;;;;2.53;1.20;;;;;;;22.06;61.67;100654.47;4955328;28;20031;-72
2021/08/18 09:50:56;;;;;;;2.88;1.30;;;;;;;22.00;61.24;100649.47;4952536;28;20052;-72
2021/08/18 09:53:32;;;;;;;1.77;1.00;;;;;;;21.94;60.75;100652.44;4951778;28;20095;-71
2021/08/18 09:56:09;;;;;;;1.50;1.35;;;;;;;21.79;61.32;100645.47;4960713;28;20123;-75
2021/08/18 09:58:42;;;;;;;1.20;1.00;;;;;;;21.70;61.15;100650.31;4954458;28;20039;-73
2021/08/18 10:01:14;;;;;;;1.35;0.90;;;;;;;21.68;61.42;100652.59;4955749;29;20042;-72
2021/08/18 10:03:44;;;;;;;3.50;1.48;;;;;;;21.64;61.28;100648.88;4959302;28;20027;-77
2021/08/18 10:06:11;;;;;;;2.05;1.00;;;;;;;21.68;60.67;100654.56;4958776;28;20031;-70
2021/08/18 10:08:39;;;;;;;1.05;1.05;;;;;;;21.61;60.55;100644.78;4968511;28;20059;-72
2021/08/18 10:11:07;;;;;;;1.10;1.00;;;;;;;21.73;60.47;100649.63;4957827;28;20028;-74
2021/08/18 10:13:33;;;;;;;0.90;0.90;;;;;;;21.84;59.84;100665.94;4953985;28;20058;-74
2021/08/18 10:15:59;;;;;;;1.38;1.27;;;;;;;21.84;59.00;100646.44;4955306;28;20069;-71
2021/08/18 10:18:35;;;;;;;1.25;0.93;;;;;;;21.90;59.45;100651.50;4956446;28;20039;-72
2021/08/18 10:21:08;;;;;;;1.27;1.17;;;;;;;22.08;58.79;100646.59;4958127;28;20030;-71
2021/08/18 10:23:55;;;;;;;1.27;1.08;;;;;;;22.28;58.46;100633.00;4958092;28;20027;-71
2021/08/18 10:26:39;;;;;;;1.02;0.93;;;;;;;22.62;57.46;100643.06;4957422;28;20034;-72
2021/08/18 10:29:09;;;;;;;1.15;1.05;;;;;;;22.82;57.05;100633.03;4967756;28;20016;-70
2021/08/18 10:31:40;;;;;;;0.82;0.82;;;;;;;23.03;56.54;100629.38;4959197;28;20027;-72
2021/08/18 10:34:09;;;;;;;0.50;0.50;;;;;;;23.17;56.38;100629.88;4957054;28;20019;-71
2021/08/18 10:36:41;;;;;;;0.70;0.70;;;;;;;23.30;55.05;100627.09;4949620;28;20075;-70
2021/08/18 10:39:19;;;;;;;2.33;0.90;;;;;;;23.10;55.06;100645.50;4967005;28;20031;-71
2021/08/18 10:42:08;;;;;;;1.38;0.90;;;;;;;22.86;55.92;100643.50;4959578;28;20024;-71
2021/08/18 10:44:45;;;;;;;0.68;0.68;;;;;;;22.84;56.52;100639.06;4957810;28;20175;-71
2021/08/18 10:47:20;;;;;;;2.17;0.90;;;;;;;22.78;56.02;100637.66;4954152;28;20042;-70
2021/08/18 10:49:48;;;;;;;4.72;1.10;;;;;;;22.93;55.96;100635.38;4956820;28;20366;-71
2021/08/18 10:52:29;;;;;;;0.73;0.63;;;;;;;23.17;54.75;100629.06;4959576;28;20027;-70
2021/08/18 10:55:23;;;;;;;0.90;0.63;;;;;;;23.25;54.35;100628.13;4974632;28;20050;-73
2021/08/18 10:57:49;;;;;;;0.40;0.40;;;;;;;23.35;54.54;100626.88;4979173;28;20034;-70
2021/08/18 11:00:33;;;;;;;0.30;0.30;;;;;;;23.95;54.77;100618.03;4976075;28;20159;-73
2021/08/18 11:03:08;;;;;;;0.30;0.30;;;;;;;24.57;51.35;100610.22;4955455;28;20050;-73
2021/08/18 11:05:40;;;;;;;0.40;0.40;;;;;;;25.02;50.02;100613.84;4971578;28;20577;-73
2021/08/18 11:08:28;;;;;;;0.40;0.40;;;;;;;25.15;49.22;100618.16;4957011;28;20031;-74
2021/08/18 11:10:53;;;;;;;1.30;0.40;;;;;;;25.14;48.81;100619.34;4959030;28;20093;-71
2021/08/18 11:13:41;;;;;;;0.50;0.50;;;;;;;25.12;49.06;100618.91;4980899;28;20030;-74
2021/08/18 11:16:13;;;;;;;1.75;0.43;;;;;;;24.86;48.01;100622.22;4976373;28;21704;-73
2021/08/18 11:18:55;;;;;;;0.57;0.40;;;;;;;24.88;48.69;100628.25;4977798;28;20054;-72
2021/08/18 11:21:34;;;;;;;1.77;0.47;;;;;;;25.00;48.29;100621.75;4971533;28;20066;-72
2021/08/18 11:24:05;;;;;;;0.63;0.63;;;;;;;24.91;48.18;100622.75;4977237;28;20050;-73
2021/08/18 11:26:34;;;;;;;0.77;0.77;;;;;;;25.18;49.02;100625.84;4974837;28;20026;-71
2021/08/18 11:29:09;;;;;;;0.90;0.80;;;;;;;25.51;47.80;100624.69;4977969;28;20500;-71
2021/08/18 11:31:34;;;;;;;;;;;;;;;25.65;45.83;100620.59;4975683;28;20039;-72
2021/08/18 11:34:00;;;;;;;1.25;0.50;;;;;;;25.16;47.24;100625.41;4980859;28;19914;-71
2021/08/18 11:36:26;;;;;;;0.50;0.43;;;;;;;24.88;47.58;100620.69;4953444;28;20113;-72
2021/08/18 11:39:06;;;;;;;1.80;0.30;;;;;;;25.05;47.85;100621.50;4967329;28;20055;-72
2021/08/18 11:41:43;;;;;;;0.45;0.30;;;;;;;26.04;44.95;100629.13;4962359;28;20496;-73
2021/08/18 11:44:15;;;;;;;0.35;0.35;;;;;;;26.95;43.45;100624.94;4959677;28;20117;-72
2021/08/18 11:46:40;;;;;;;0.30;0.30;;;;;;;27.20;42.36;100610.53;4976735;28;20037;-72
2021/08/18 11:49:08;;;;;;;0.22;0.22;;;;;;;26.95;42.51;100610.91;4949754;28;20030;-71
2021/08/18 11:51:34;;;;;;;0.35;0.30;;;;;;;26.59;42.91;100604.63;4958772;28;20018;-73
2021/08/18 11:54:00;;;;;;;1.88;0.50;;;;;;;26.16;43.93;100614.94;4967969;28;20155;-72
2021/08/18 11:56:29;;;;;;;0.82;0.52;;;;;;;25.82;44.22;100591.34;4960793;28;20046;-72
2021/08/18 11:59:03;;;;;;;0.40;0.40;;;;;;;25.54;45.15;100595.97;4952900;28;20027;-72
2021/08/18 12:01:33;;;;;;;1.38;0.52;;;;;;;25.12;45.83;100612.50;4961776;28;20093;-73
2021/08/18 12:04:01;;;;;;;0.55;0.50;;;;;;;24.69;47.63;100601.81;4977699;28;20039;-73
2021/08/18 12:06:31;;;;;;;0.30;0.30;;;;;;;24.58;47.87;100593.09;4968888;28;20088;-74
2021/08/18 12:08:57;;;;;;;1.08;0.60;;;;;;;24.48;48.53;100596.41;4967400;28;20077;-74
2021/08/18 12:11:37;;;;;;;2.67;0.80;;;;;;;24.23;48.57;100604.06;4975102;28;20474;-74
2021/08/18 12:14:36;;;;;;;0.77;0.77;;;;;;;24.01;48.71;100594.25;4968083;28;20062;-74
2021/08/18 12:17:01;;;;;;;1.60;0.95;;;;;;;23.75;49.84;100598.22;4955710;28;20048;-74
2021/08/18 12:19:28;;;;;;;0.98;0.80;;;;;;;23.53;50.49;100589.19;4960421;28;20043;-73
2021/08/18 12:22:03;;;;;;;0.75;0.60;;;;;;;23.49;50.86;100588.25;4960034;28;20026;-75
2021/08/18 12:24:29;;;;;;;0.70;0.70;;;;;;;23.49;52.27;100595.81;4966935;28;20049;-74
2021/08/18 12:27:00;;;;;;;0.77;0.77;;;;;;;23.43;52.08;100581.28;4957992;28;20035;-73
2021/08/18 12:29:30;;;;;;;0.63;0.63;;;;;;;23.40;52.88;100582.00;4958175;28;20047;-74
2021/08/18 12:31:57;;;;;;;1.60;0.93;;;;;;;23.42;52.56;100579.69;4958777;28;20053;-75
2021/08/18 12:34:42;;;;;;;0.88;0.70;;;;;;;23.45;52.65;100583.72;4952257;28;20023;-73
2021/08/18 12:37:21;;;;;;;1.73;0.85;;;;;;;23.44;52.69;100574.56;4957594;28;20034;-72
2021/08/18 12:39:58;;;;;;;0.85;0.85;;;;;;;23.41;52.63;100580.84;4955234;28;20038;-73
2021/08/18 12:42:27;;;;;;;1.95;1.10;;;;;;;23.38;53.10;100578.75;4954999;28;20007;-73
2021/08/18 12:45:24;;;;;;;1.30;1.20;;;;;;;23.42;52.47;100576.88;4957054;28;20477;-73
2021/08/18 12:47:52;;;;;;;1.55;1.05;;;;;;;23.28;53.30;100582.00;4952648;28;20074;-72
2021/08/18 12:50:39;;;;;;;0.80;0.80;;;;;;;23.43;52.27;100584.06;4953266;28;20051;-74
2021/08/18 12:53:07;;;;;;;0.82;0.80;;;;;;;23.46;52.35;100586.16;4950793;28;20764;-74
2021/08/18 12:55:39;;;;;;;3.20;1.92;;;;;;;23.24;52.47;100589.44;4955703;28;20040;-76
2021/08/18 12:58:15;;;;;;;1.60;1.23;;;;;;;23.06;53.13;100578.47;4945826;28;20441;-77
2021/08/18 13:00:40;;;;;;;1.70;0.80;;;;;;;22.97;53.51;100575.00;4954249;28;20129;-76
2021/08/18 13:03:06;;;;;;;1.08;0.98;;;;;;;22.91;53.43;100576.34;4959178;28;20037;-76
2021/08/18 13:05:31;;;;;;;0.80;0.80;;;;;;;22.77;53.71;100571.13;4958008;28;20023;-76
2021/08/18 13:07:57;;;;;;;0.75;0.73;;;;;;;22.64;53.64;100587.00;4959235;29;20045;-77
2021/08/18 13:10:22;;;;;;;0.77;0.77;;;;;;;22.59;54.00;100576.03;4956795;28;20041;-76
2021/08/18 13:12:48;;;;;;;1.25;1.00;;;;;;;22.53;54.56;100577.44;4962035;28;20042;-75
2021/08/18 13:15:13;;;;;;;1.27;1.10;;;;;;;22.61;54.74;100573.75;4957936;28;20027;-73
2021/08/18 13:17:39;;;;;;;0.73;0.73;;;;;;;22.71;54.79;100578.88;4952690;28;21570;-73
2021/08/18 13:20:05;;;;;;;2.75;1.15;;;;;;;22.71;54.70;100567.72;4944087;29;20042;-75
2021/08/18 13:22:31;;;;;;;3.45;1.15;;;;;;;22.73;54.47;100582.13;4960812;28;20023;-76
2021/08/18 13:24:56;;;;;;;2.28;1.30;;;;;;;22.70;54.20;100570.88;4960590;28;20105;-76
2021/08/18 13:27:22;;;;;;;1.17;0.98;;;;;;;22.58;54.30;100572.44;4957252;28;20061;-77
2021/08/18 13:29:48;;;;;;;3.55;1.40;;;;;;;22.47;55.11;100574.88;4960539;28;20494;-75
2021/08/18 13:32:14;;;;;;;5.82;1.25;;;;;;;22.42;55.07;100572.28;4962224;28;20030;-75
2021/08/18 13:34:42;;;;;;;1.73;1.20;;;;;;;22.39;55.06;100572.19;4959423;29;20863;-75
2021/08/18 13:37:08;;;;;;;3.50;1.10;;;;;;;22.25;55.28;100572.41;4961790;28;20031;-75
2021/08/18 13:39:34;;;;;;;4.93;1.30;;;;;;;22.10;55.86;100565.53;4962672;28;20796;-76
2021/08/18 13:42:02;;;;;;;2.88;1.33;;;;;;;22.16;55.59;100560.56;4960663;28;20035;-75
2021/08/18 13:44:28;;;;;;;1.08;0.90;;;;;;;22.21;54.92;100563.13;4960839;29;20470;-75
2021/08/18 13:46:56;;;;;;;0.90;0.80;;;;;;;22.24;55.39;100573.56;4961523;28;20046;-77
2021/08/18 13:49:22;;;;;;;2.55;1.10;;;;;;;22.06;54.62;100548.66;4936320;28;20031;-77
2021/08/18 13:51:51;;;;;;;0.88;0.85;;;;;;;22.06;55.47;100561.78;4952970;28;20090;-75
2021/08/18 13:54:23;;;;;;;2.67;0.85;;;;;;;22.03;55.46;100562.47;4945522;29;20090;-77
2021/08/18 13:56:54;;;;;;;0.82;0.82;;;;;;;21.95;55.67;100564.19;4967086;28;20034;-76
2021/08/18 13:59:22;;;;;;;4.45;0.90;;;;;;;22.00;55.98;100566.75;4961435;29;20081;-76
2021/08/18 14:01:50;;;;;;;1.65;1.02;;;;;;;22.05;55.92;100560.97;4947876;29;20027;-76
2021/08/18 14:04:15;;;;;;;2.15;0.80;;;;;;;22.09;55.48;100553.56;4962921;28;20043;-76
2021/08/18 14:06:41;;;;;;;0.88;0.88;;;;;;;22.10;55.33;100555.19;4949165;29;20486;-77
2021/08/18 14:09:15;;;;;;;2.67;1.00;;;;;;;22.02;55.50;100546.91;4950072;29;20492;-76
2021/08/18 14:11:41;;;;;;;0.85;0.85;;;;;;;22.04;55.71;100551.00;4946895;29;20098;-76
2021/08/18 14:14:14;;;;;;;0.95;0.60;;;;;;;22.16;55.57;100547.44;4966518;28;20023;-75
2021/08/18 14:16:43;;;;;;;0.73;0.73;;;;;;;22.26;55.27;100551.78;4959209;28;20043;-74
2021/08/18 14:19:08;;;;;;;8.07;1.17;;;;;;;22.52;54.22;100562.69;4960189;29;20034;-76
2021/08/18 14:21:34;;;;;;;0.95;0.68;;;;;;;22.47;53.62;100563.72;4961803;28;20039;-74
2021/08/18 14:23:59;;;;;;;0.75;0.60;;;;;;;22.36;53.95;100556.16;4961732;29;20046;-74
2021/08/18 14:26:25;;;;;;;1.10;1.00;;;;;;;22.34;54.52;100559.28;4930036;29;20489;-77
2021/08/18 14:28:51;;;;;;;2.15;0.60;;;;;;;22.26;53.63;100538.66;4957467;28;20031;-74
2021/08/18 14:31:16;;;;;;;3.25;0.93;;;;;;;22.07;53.76;100530.00;4968339;28;20019;-72
2021/08/18 14:34:29;;;;;;;;;;;;;;;;;;;;;
2021/08/18 16:49:48;;;;;;;1.27;0.40;;;;;;;18.92;60.52;100456.69;4969824;28;20078;-70
2021/08/18 16:52:23;;;;;;;4.35;0.50;;;;;;;18.89;61.00;100456.53;4957821;28;20036;-70
2021/08/18 16:55:43;;;;;;;;;;;;;;;;;;;;;
2021/08/18 16:58:29;;;;;;;1.00;0.50;;;;;;;18.96;60.85;100449.38;4954312;28;20118;-69
2021/08/18 17:01:48;;;;;;;1.67;0.95;;;;;;;18.92;60.16;100456.69;4944946;28;20035;-72